Decoded Metar for LFKS (SOLENZARA in CORSE ISL.) (IATA:SOZ) | Meteo·Mobile Aviation Weather
aviador You're here:

LFKS Decoded Metar

SOLENZARA in CORSE ISL.
Report Time2018-09-21 09:30:00
UTC Time2018-09-21 10:06:14
Flight Rules vfr VFR
Wind070° at 07 kt
W.Decomp.*RWY 36: 2.6 kt HW 6.5 kt RCW
W.Rank070° ranks 21
Current wind is above 070° avg. (6.5)
Visibility9999 m
Phenomena:N/A
Clouds:N/A
Expected CloudBase > 3,200 ft AGL from Temp-Dew spread
CeilingNone
Temp28°C (ISA +13)
Dew Point20°C (62% RH)
Heat Index29.7°C
QNH1016 hPa
Density Alt1,791 ft
Elevation72 ft
Report Wrong Elevation
Raw Report
METAR LFKS 210930Z AUTO 07007KT 030V110 CAVOK 28/20 Q1016=

Extra information for LFKS:More info

Metar Taf Metar & Taf Last 4 Metars F.Rules Stats Wind Profile Meteogram Temp Stats Airport Information Weather charts Add Link Nearby VenuesMetar ALERT Operation Metar Decoded Social comments